sensor_id;sensor_type;location;lat;lon;timestamp;temperature;humidity
32293;DHT22;43233;48.608;8.838;2023-09-07T00:02:24;17.30;52.90
32293;DHT22;43233;48.608;8.838;2023-09-07T00:04:49;17.30;52.60
32293;DHT22;43233;48.608;8.838;2023-09-07T00:07:15;17.30;52.70
32293;DHT22;43233;48.608;8.838;2023-09-07T00:09:41;17.30;52.70
32293;DHT22;43233;48.608;8.838;2023-09-07T00:12:06;17.30;52.70
32293;DHT22;43233;48.608;8.838;2023-09-07T00:14:32;17.30;52.40
32293;DHT22;43233;48.608;8.838;2023-09-07T00:16:58;17.20;52.30
32293;DHT22;43233;48.608;8.838;2023-09-07T00:19:23;17.20;52.10
32293;DHT22;43233;48.608;8.838;2023-09-07T00:21:49;17.30;52.10
32293;DHT22;43233;48.608;8.838;2023-09-07T00:24:17;17.30;52.20
32293;DHT22;43233;48.608;8.838;2023-09-07T00:26:43;17.20;52.90
32293;DHT22;43233;48.608;8.838;2023-09-07T00:29:09;17.20;52.60
32293;DHT22;43233;48.608;8.838;2023-09-07T00:31:34;17.20;53.50
32293;DHT22;43233;48.608;8.838;2023-09-07T00:34:00;17.20;53.40
32293;DHT22;43233;48.608;8.838;2023-09-07T00:36:26;17.20;53.60
32293;DHT22;43233;48.608;8.838;2023-09-07T00:38:51;17.20;53.90
32293;DHT22;43233;48.608;8.838;2023-09-07T00:41:17;17.20;53.90
32293;DHT22;43233;48.608;8.838;2023-09-07T00:43:42;17.20;53.60
32293;DHT22;43233;48.608;8.838;2023-09-07T00:46:08;17.20;53.60
32293;DHT22;43233;48.608;8.838;2023-09-07T00:48:35;17.10;53.80
32293;DHT22;43233;48.608;8.838;2023-09-07T00:51:00;17.10;54.10
32293;DHT22;43233;48.608;8.838;2023-09-07T00:53:27;17.10;54.60
32293;DHT22;43233;48.608;8.838;2023-09-07T00:55:55;17.10;55.20
32293;DHT22;43233;48.608;8.838;2023-09-07T00:58:21;17.00;55.30
32293;DHT22;43233;48.608;8.838;2023-09-07T01:00:47;17.00;56.40
32293;DHT22;43233;48.608;8.838;2023-09-07T01:03:13;17.00;55.80
32293;DHT22;43233;48.608;8.838;2023-09-07T01:06:01;17.00;55.90
32293;DHT22;43233;48.608;8.838;2023-09-07T01:08:48;16.90;56.10
32293;DHT22;43233;48.608;8.838;2023-09-07T01:11:15;16.90;55.70
32293;DHT22;43233;48.608;8.838;2023-09-07T01:13:41;16.80;55.70
32293;DHT22;43233;48.608;8.838;2023-09-07T01:16:08;16.80;56.00
32293;DHT22;43233;48.608;8.838;2023-09-07T01:18:35;16.80;56.40
32293;DHT22;43233;48.608;8.838;2023-09-07T01:21:05;16.70;57.00
32293;DHT22;43233;48.608;8.838;2023-09-07T01:23:31;16.60;57.70
32293;DHT22;43233;48.608;8.838;2023-09-07T01:25:57;16.60;58.50
32293;DHT22;43233;48.608;8.838;2023-09-07T01:28:23;16.40;59.80
32293;DHT22;43233;48.608;8.838;2023-09-07T01:30:51;16.20;60.50
32293;DHT22;43233;48.608;8.838;2023-09-07T01:33:17;16.10;61.70
32293;DHT22;43233;48.608;8.838;2023-09-07T01:35:43;16.00;61.90
32293;DHT22;43233;48.608;8.838;2023-09-07T01:38:09;16.00;62.00
32293;DHT22;43233;48.608;8.838;2023-09-07T01:40:34;16.00;61.70
32293;DHT22;43233;48.608;8.838;2023-09-07T01:43:01;16.00;61.00
32293;DHT22;43233;48.608;8.838;2023-09-07T01:45:26;16.10;60.80
32293;DHT22;43233;48.608;8.838;2023-09-07T01:47:52;16.20;60.40
32293;DHT22;43233;48.608;8.838;2023-09-07T01:50:18;16.10;60.70
32293;DHT22;43233;48.608;8.838;2023-09-07T01:52:48;16.10;60.70
32293;DHT22;43233;48.608;8.838;2023-09-07T01:55:14;16.10;61.20
32293;DHT22;43233;48.608;8.838;2023-09-07T01:57:40;16.00;61.70
32293;DHT22;43233;48.608;8.838;2023-09-07T02:00:07;15.80;62.20
32293;DHT22;43233;48.608;8.838;2023-09-07T02:02:33;15.70;63.00
32293;DHT22;43233;48.608;8.838;2023-09-07T02:04:59;15.70;63.30
32293;DHT22;43233;48.608;8.838;2023-09-07T02:07:24;15.60;63.50
32293;DHT22;43233;48.608;8.838;2023-09-07T02:09:50;15.60;63.70
32293;DHT22;43233;48.608;8.838;2023-09-07T02:12:16;15.60;64.00
32293;DHT22;43233;48.608;8.838;2023-09-07T02:14:42;15.50;64.40
32293;DHT22;43233;48.608;8.838;2023-09-07T02:17:08;15.50;64.70
32293;DHT22;43233;48.608;8.838;2023-09-07T02:19:34;15.40;64.80
32293;DHT22;43233;48.608;8.838;2023-09-07T02:22:00;15.40;64.80
32293;DHT22;43233;48.608;8.838;2023-09-07T02:24:26;15.40;64.70
32293;DHT22;43233;48.608;8.838;2023-09-07T02:26:52;15.30;64.90
32293;DHT22;43233;48.608;8.838;2023-09-07T02:29:17;15.30;64.80
32293;DHT22;43233;48.608;8.838;2023-09-07T02:31:43;15.30;64.70
32293;DHT22;43233;48.608;8.838;2023-09-07T02:34:09;15.40;64.20
32293;DHT22;43233;48.608;8.838;2023-09-07T02:36:35;15.40;63.50
32293;DHT22;43233;48.608;8.838;2023-09-07T02:39:01;15.50;63.80
32293;DHT22;43233;48.608;8.838;2023-09-07T02:41:27;15.50;62.70
32293;DHT22;43233;48.608;8.838;2023-09-07T02:43:53;15.60;62.10
32293;DHT22;43233;48.608;8.838;2023-09-07T02:46:18;15.60;61.70
32293;DHT22;43233;48.608;8.838;2023-09-07T02:48:44;15.60;61.80
32293;DHT22;43233;48.608;8.838;2023-09-07T02:51:09;15.60;62.20
32293;DHT22;43233;48.608;8.838;2023-09-07T02:53:35;15.50;62.40
32293;DHT22;43233;48.608;8.838;2023-09-07T02:56:00;15.50;62.60
32293;DHT22;43233;48.608;8.838;2023-09-07T02:58:30;15.50;62.40
32293;DHT22;43233;48.608;8.838;2023-09-07T03:00:55;15.50;62.40
32293;DHT22;43233;48.608;8.838;2023-09-07T03:03:21;15.60;62.30
32293;DHT22;43233;48.608;8.838;2023-09-07T03:05:47;15.50;62.20
32293;DHT22;43233;48.608;8.838;2023-09-07T03:08:12;15.60;61.90
32293;DHT22;43233;48.608;8.838;2023-09-07T03:10:39;15.60;61.60
32293;DHT22;43233;48.608;8.838;2023-09-07T03:13:08;15.70;61.70
32293;DHT22;43233;48.608;8.838;2023-09-07T03:15:34;15.70;61.70
32293;DHT22;43233;48.608;8.838;2023-09-07T03:17:59;15.70;61.40
32293;DHT22;43233;48.608;8.838;2023-09-07T03:20:26;15.70;61.40
32293;DHT22;43233;48.608;8.838;2023-09-07T03:22:51;15.70;61.20
32293;DHT22;43233;48.608;8.838;2023-09-07T03:25:17;15.70;61.30
32293;DHT22;43233;48.608;8.838;2023-09-07T03:27:43;15.60;61.70
32293;DHT22;43233;48.608;8.838;2023-09-07T03:30:09;15.50;62.30
32293;DHT22;43233;48.608;8.838;2023-09-07T03:32:35;15.50;62.90
32293;DHT22;43233;48.608;8.838;2023-09-07T03:35:02;15.40;63.30
32293;DHT22;43233;48.608;8.838;2023-09-07T03:37:28;15.30;63.60
32293;DHT22;43233;48.608;8.838;2023-09-07T03:39:55;15.30;63.70
32293;DHT22;43233;48.608;8.838;2023-09-07T03:42:22;15.30;63.40
32293;DHT22;43233;48.608;8.838;2023-09-07T03:44:47;15.40;63.50
32293;DHT22;43233;48.608;8.838;2023-09-07T03:47:14;15.40;63.60
32293;DHT22;43233;48.608;8.838;2023-09-07T03:49:41;15.40;63.40
32293;DHT22;43233;48.608;8.838;2023-09-07T03:52:07;15.40;63.20
32293;DHT22;43233;48.608;8.838;2023-09-07T03:54:33;15.40;63.10
32293;DHT22;43233;48.608;8.838;2023-09-07T03:56:58;15.40;63.10
32293;DHT22;43233;48.608;8.838;2023-09-07T03:59:24;15.40;63.10
32293;DHT22;43233;48.608;8.838;2023-09-07T04:01:49;15.40;63.20
32293;DHT22;43233;48.608;8.838;2023-09-07T04:04:15;15.30;63.10
32293;DHT22;43233;48.608;8.838;2023-09-07T04:06:41;15.40;63.40
32293;DHT22;43233;48.608;8.838;2023-09-07T04:09:07;15.40;63.30
32293;DHT22;43233;48.608;8.838;2023-09-07T04:11:32;15.40;63.30
32293;DHT22;43233;48.608;8.838;2023-09-07T04:13:58;15.40;63.30
32293;DHT22;43233;48.608;8.838;2023-09-07T04:16:23;15.40;63.40
32293;DHT22;43233;48.608;8.838;2023-09-07T04:18:49;15.40;63.20
32293;DHT22;43233;48.608;8.838;2023-09-07T04:21:14;15.40;63.40
32293;DHT22;43233;48.608;8.838;2023-09-07T04:23:40;15.40;63.40
32293;DHT22;43233;48.608;8.838;2023-09-07T04:26:11;15.30;64.00
32293;DHT22;43233;48.608;8.838;2023-09-07T04:28:37;15.20;65.00
32293;DHT22;43233;48.608;8.838;2023-09-07T04:31:04;15.10;65.20
32293;DHT22;43233;48.608;8.838;2023-09-07T04:33:31;15.00;65.40
32293;DHT22;43233;48.608;8.838;2023-09-07T04:35:57;15.00;65.60
32293;DHT22;43233;48.608;8.838;2023-09-07T04:38:23;15.00;65.60
32293;DHT22;43233;48.608;8.838;2023-09-07T04:40:49;15.00;65.60
32293;DHT22;43233;48.608;8.838;2023-09-07T04:43:14;15.00;65.40
32293;DHT22;43233;48.608;8.838;2023-09-07T04:45:46;15.00;65.60
32293;DHT22;43233;48.608;8.838;2023-09-07T04:48:12;15.00;65.60
32293;DHT22;43233;48.608;8.838;2023-09-07T04:50:38;15.00;65.70
32293;DHT22;43233;48.608;8.838;2023-09-07T04:53:03;15.00;66.10
32293;DHT22;43233;48.608;8.838;2023-09-07T04:55:29;14.90;66.50
32293;DHT22;43233;48.608;8.838;2023-09-07T04:57:55;14.80;66.90
32293;DHT22;43233;48.608;8.838;2023-09-07T05:00:20;14.70;67.20
32293;DHT22;43233;48.608;8.838;2023-09-07T05:02:46;14.70;67.50
32293;DHT22;43233;48.608;8.838;2023-09-07T05:05:12;14.60;67.40
32293;DHT22;43233;48.608;8.838;2023-09-07T05:07:38;14.60;67.30
32293;DHT22;43233;48.608;8.838;2023-09-07T05:10:04;14.60;67.60
32293;DHT22;43233;48.608;8.838;2023-09-07T05:12:32;14.50;68.00
32293;DHT22;43233;48.608;8.838;2023-09-07T05:14:57;14.50;68.40
32293;DHT22;43233;48.608;8.838;2023-09-07T05:17:25;14.50;68.10
32293;DHT22;43233;48.608;8.838;2023-09-07T05:19:50;14.50;67.90
32293;DHT22;43233;48.608;8.838;2023-09-07T05:22:16;14.60;68.00
32293;DHT22;43233;48.608;8.838;2023-09-07T05:24:42;14.60;67.90
32293;DHT22;43233;48.608;8.838;2023-09-07T05:27:10;14.70;67.80
32293;DHT22;43233;48.608;8.838;2023-09-07T05:29:36;14.70;67.50
32293;DHT22;43233;48.608;8.838;2023-09-07T05:32:02;14.70;67.70
32293;DHT22;43233;48.608;8.838;2023-09-07T05:34:27;14.80;68.10
32293;DHT22;43233;48.608;8.838;2023-09-07T05:36:53;14.80;68.10
32293;DHT22;43233;48.608;8.838;2023-09-07T05:39:18;14.90;68.60
32293;DHT22;43233;48.608;8.838;2023-09-07T05:41:44;14.90;68.40
32293;DHT22;43233;48.608;8.838;2023-09-07T05:44:10;15.00;68.40
32293;DHT22;43233;48.608;8.838;2023-09-07T05:46:35;15.00;68.00
32293;DHT22;43233;48.608;8.838;2023-09-07T05:49:01;15.10;68.10
32293;DHT22;43233;48.608;8.838;2023-09-07T05:51:27;15.20;68.10
32293;DHT22;43233;48.608;8.838;2023-09-07T05:53:54;15.20;68.00
32293;DHT22;43233;48.608;8.838;2023-09-07T05:56:20;15.30;68.80
32293;DHT22;43233;48.608;8.838;2023-09-07T05:58:46;15.30;68.10
32293;DHT22;43233;48.608;8.838;2023-09-07T06:01:11;15.30;68.40
32293;DHT22;43233;48.608;8.838;2023-09-07T06:03:38;15.50;68.30
32293;DHT22;43233;48.608;8.838;2023-09-07T06:06:05;15.50;68.10
32293;DHT22;43233;48.608;8.838;2023-09-07T06:08:30;15.50;68.40
32293;DHT22;43233;48.608;8.838;2023-09-07T06:10:56;15.60;68.40
32293;DHT22;43233;48.608;8.838;2023-09-07T06:13:21;15.70;69.40
32293;DHT22;43233;48.608;8.838;2023-09-07T06:15:47;15.70;69.40
32293;DHT22;43233;48.608;8.838;2023-09-07T06:18:13;15.80;69.40
32293;DHT22;43233;48.608;8.838;2023-09-07T06:20:38;15.80;69.10
32293;DHT22;43233;48.608;8.838;2023-09-07T06:23:07;15.90;69.50
32293;DHT22;43233;48.608;8.838;2023-09-07T06:25:33;16.00;69.20
32293;DHT22;43233;48.608;8.838;2023-09-07T06:27:59;16.10;69.10
32293;DHT22;43233;48.608;8.838;2023-09-07T06:30:24;16.10;69.10
32293;DHT22;43233;48.608;8.838;2023-09-07T06:32:50;16.20;68.80
32293;DHT22;43233;48.608;8.838;2023-09-07T06:35:17;16.30;68.80
32293;DHT22;43233;48.608;8.838;2023-09-07T06:37:43;16.30;68.80
32293;DHT22;43233;48.608;8.838;2023-09-07T06:40:10;16.40;69.00
32293;DHT22;43233;48.608;8.838;2023-09-07T06:42:36;16.40;68.50
32293;DHT22;43233;48.608;8.838;2023-09-07T06:45:02;16.40;68.20
32293;DHT22;43233;48.608;8.838;2023-09-07T06:47:28;16.50;68.90
32293;DHT22;43233;48.608;8.838;2023-09-07T06:49:54;16.50;68.50
32293;DHT22;43233;48.608;8.838;2023-09-07T06:52:19;16.60;69.00
32293;DHT22;43233;48.608;8.838;2023-09-07T06:54:45;16.60;68.40
32293;DHT22;43233;48.608;8.838;2023-09-07T06:57:11;16.70;68.10
32293;DHT22;43233;48.608;8.838;2023-09-07T06:59:36;16.70;67.50
32293;DHT22;43233;48.608;8.838;2023-09-07T07:02:05;16.80;67.50
32293;DHT22;43233;48.608;8.838;2023-09-07T07:04:30;16.90;67.20
32293;DHT22;43233;48.608;8.838;2023-09-07T07:06:56;16.90;66.90
32293;DHT22;43233;48.608;8.838;2023-09-07T07:09:22;17.00;66.60
32293;DHT22;43233;48.608;8.838;2023-09-07T07:11:48;17.00;65.50
32293;DHT22;43233;48.608;8.838;2023-09-07T07:14:14;17.10;66.00
32293;DHT22;43233;48.608;8.838;2023-09-07T07:16:40;17.20;66.40
32293;DHT22;43233;48.608;8.838;2023-09-07T07:19:06;17.30;66.10
32293;DHT22;43233;48.608;8.838;2023-09-07T07:21:31;17.30;65.50
32293;DHT22;43233;48.608;8.838;2023-09-07T07:23:57;17.40;65.20
32293;DHT22;43233;48.608;8.838;2023-09-07T07:26:22;17.40;64.60
32293;DHT22;43233;48.608;8.838;2023-09-07T07:28:48;17.50;63.40
32293;DHT22;43233;48.608;8.838;2023-09-07T07:31:14;17.50;63.10
32293;DHT22;43233;48.608;8.838;2023-09-07T07:33:39;17.60;63.00
32293;DHT22;43233;48.608;8.838;2023-09-07T07:36:05;17.70;62.40
32293;DHT22;43233;48.608;8.838;2023-09-07T07:38:33;17.90;62.70
32293;DHT22;43233;48.608;8.838;2023-09-07T07:40:59;18.00;62.30
32293;DHT22;43233;48.608;8.838;2023-09-07T07:43:25;18.10;61.10
32293;DHT22;43233;48.608;8.838;2023-09-07T07:45:53;18.20;61.10
32293;DHT22;43233;48.608;8.838;2023-09-07T07:48:19;18.30;60.70
32293;DHT22;43233;48.608;8.838;2023-09-07T07:50:45;18.40;60.20
32293;DHT22;43233;48.608;8.838;2023-09-07T07:53:11;18.60;59.20
32293;DHT22;43233;48.608;8.838;2023-09-07T07:55:40;18.70;58.60
32293;DHT22;43233;48.608;8.838;2023-09-07T07:58:06;18.80;57.90
32293;DHT22;43233;48.608;8.838;2023-09-07T08:00:36;18.80;57.00
32293;DHT22;43233;48.608;8.838;2023-09-07T08:03:02;18.90;57.10
32293;DHT22;43233;48.608;8.838;2023-09-07T08:05:32;19.00;57.40
32293;DHT22;43233;48.608;8.838;2023-09-07T08:07:59;19.00;56.60
32293;DHT22;43233;48.608;8.838;2023-09-07T08:10:24;19.10;57.70
32293;DHT22;43233;48.608;8.838;2023-09-07T08:12:54;19.20;57.40
32293;DHT22;43233;48.608;8.838;2023-09-07T08:15:23;19.30;56.90
32293;DHT22;43233;48.608;8.838;2023-09-07T08:17:50;19.40;56.20
32293;DHT22;43233;48.608;8.838;2023-09-07T08:20:16;19.50;56.50
32293;DHT22;43233;48.608;8.838;2023-09-07T08:22:42;19.60;56.30
32293;DHT22;43233;48.608;8.838;2023-09-07T08:25:10;19.70;55.60
32293;DHT22;43233;48.608;8.838;2023-09-07T08:27:36;19.80;55.00
32293;DHT22;43233;48.608;8.838;2023-09-07T08:30:02;19.90;54.80
32293;DHT22;43233;48.608;8.838;2023-09-07T08:32:30;20.00;54.50
32293;DHT22;43233;48.608;8.838;2023-09-07T08:34:56;20.10;53.80
32293;DHT22;43233;48.608;8.838;2023-09-07T08:37:27;20.10;52.90
32293;DHT22;43233;48.608;8.838;2023-09-07T08:39:54;20.20;53.40
32293;DHT22;43233;48.608;8.838;2023-09-07T08:42:21;20.20;54.50
32293;DHT22;43233;48.608;8.838;2023-09-07T08:44:47;20.40;53.70
32293;DHT22;43233;48.608;8.838;2023-09-07T08:47:15;20.40;53.20
32293;DHT22;43233;48.608;8.838;2023-09-07T08:49:43;20.50;53.30
32293;DHT22;43233;48.608;8.838;2023-09-07T08:52:11;20.50;53.00
32293;DHT22;43233;48.608;8.838;2023-09-07T08:54:37;20.60;53.10
32293;DHT22;43233;48.608;8.838;2023-09-07T08:57:03;20.70;53.00
32293;DHT22;43233;48.608;8.838;2023-09-07T08:59:30;20.80;52.30
32293;DHT22;43233;48.608;8.838;2023-09-07T09:01:59;20.80;53.10
32293;DHT22;43233;48.608;8.838;2023-09-07T09:04:26;20.90;53.70
32293;DHT22;43233;48.608;8.838;2023-09-07T09:06:53;21.00;51.70
32293;DHT22;43233;48.608;8.838;2023-09-07T09:09:22;21.10;52.30
32293;DHT22;43233;48.608;8.838;2023-09-07T09:11:51;21.20;52.50
32293;DHT22;43233;48.608;8.838;2023-09-07T09:14:17;21.30;52.10
32293;DHT22;43233;48.608;8.838;2023-09-07T09:16:51;21.50;52.40
32293;DHT22;43233;48.608;8.838;2023-09-07T09:19:17;21.60;51.50
32293;DHT22;43233;48.608;8.838;2023-09-07T09:21:44;21.80;51.10
32293;DHT22;43233;48.608;8.838;2023-09-07T09:24:11;21.90;50.30
32293;DHT22;43233;48.608;8.838;2023-09-07T09:26:40;22.00;49.70
32293;DHT22;43233;48.608;8.838;2023-09-07T09:29:06;22.10;50.00
32293;DHT22;43233;48.608;8.838;2023-09-07T09:31:31;22.30;49.20
32293;DHT22;43233;48.608;8.838;2023-09-07T09:33:58;22.40;49.30
32293;DHT22;43233;48.608;8.838;2023-09-07T09:36:23;22.50;48.80
32293;DHT22;43233;48.608;8.838;2023-09-07T09:38:51;22.50;47.60
32293;DHT22;43233;48.608;8.838;2023-09-07T09:41:19;22.60;48.00
32293;DHT22;43233;48.608;8.838;2023-09-07T09:43:46;22.70;48.00
32293;DHT22;43233;48.608;8.838;2023-09-07T09:46:14;22.80;47.50
32293;DHT22;43233;48.608;8.838;2023-09-07T09:48:42;22.90;47.40
32293;DHT22;43233;48.608;8.838;2023-09-07T09:51:08;22.90;47.70
32293;DHT22;43233;48.608;8.838;2023-09-07T09:53:34;23.00;47.40
32293;DHT22;43233;48.608;8.838;2023-09-07T09:56:00;23.10;46.40
32293;DHT22;43233;48.608;8.838;2023-09-07T09:58:26;23.20;46.40
32293;DHT22;43233;48.608;8.838;2023-09-07T10:00:55;23.30;47.20
32293;DHT22;43233;48.608;8.838;2023-09-07T10:03:28;23.50;46.70
32293;DHT22;43233;48.608;8.838;2023-09-07T10:05:55;23.60;45.70
32293;DHT22;43233;48.608;8.838;2023-09-07T10:08:21;23.70;46.40
32293;DHT22;43233;48.608;8.838;2023-09-07T10:10:53;23.80;45.40
32293;DHT22;43233;48.608;8.838;2023-09-07T10:13:40;23.90;44.70
32293;DHT22;43233;48.608;8.838;2023-09-07T10:16:06;24.00;45.20
32293;DHT22;43233;48.608;8.838;2023-09-07T10:18:37;24.10;44.30
32293;DHT22;43233;48.608;8.838;2023-09-07T10:21:03;24.30;44.50
32293;DHT22;43233;48.608;8.838;2023-09-07T10:23:40;24.40;43.30
32293;DHT22;43233;48.608;8.838;2023-09-07T10:26:14;24.50;44.20
32293;DHT22;43233;48.608;8.838;2023-09-07T10:28:41;24.60;43.80
32293;DHT22;43233;48.608;8.838;2023-09-07T10:31:14;24.80;43.50
32293;DHT22;43233;48.608;8.838;2023-09-07T10:33:40;24.90;43.10
32293;DHT22;43233;48.608;8.838;2023-09-07T10:36:06;25.10;42.80
32293;DHT22;43233;48.608;8.838;2023-09-07T10:38:33;25.20;40.10
32293;DHT22;43233;48.608;8.838;2023-09-07T10:41:01;25.20;40.10
32293;DHT22;43233;48.608;8.838;2023-09-07T10:43:31;25.30;40.40
32293;DHT22;43233;48.608;8.838;2023-09-07T10:45:58;25.30;40.80
32293;DHT22;43233;48.608;8.838;2023-09-07T10:48:28;25.40;41.90
32293;DHT22;43233;48.608;8.838;2023-09-07T10:50:54;25.60;41.90
32293;DHT22;43233;48.608;8.838;2023-09-07T10:53:31;25.80;41.50
32293;DHT22;43233;48.608;8.838;2023-09-07T10:56:03;26.00;42.50
32293;DHT22;43233;48.608;8.838;2023-09-07T10:58:34;26.20;38.90
32293;DHT22;43233;48.608;8.838;2023-09-07T11:01:00;26.30;38.90
32293;DHT22;43233;48.608;8.838;2023-09-07T11:03:27;26.40;38.30
32293;DHT22;43233;48.608;8.838;2023-09-07T11:06:16;26.50;39.10
32293;DHT22;43233;48.608;8.838;2023-09-07T11:08:45;26.70;38.70
32293;DHT22;43233;48.608;8.838;2023-09-07T11:11:12;26.80;37.80
32293;DHT22;43233;48.608;8.838;2023-09-07T11:13:38;27.00;37.90
32293;DHT22;43233;48.608;8.838;2023-09-07T11:16:07;27.10;38.60
32293;DHT22;43233;48.608;8.838;2023-09-07T11:18:34;27.30;39.00
32293;DHT22;43233;48.608;8.838;2023-09-07T11:21:02;27.40;38.60
32293;DHT22;43233;48.608;8.838;2023-09-07T11:23:32;27.60;38.80
32293;DHT22;43233;48.608;8.838;2023-09-07T11:26:04;27.70;38.20
32293;DHT22;43233;48.608;8.838;2023-09-07T11:28:33;27.80;38.10
32293;DHT22;43233;48.608;8.838;2023-09-07T11:31:00;28.00;38.20
32293;DHT22;43233;48.608;8.838;2023-09-07T11:33:26;28.20;36.60
32293;DHT22;43233;48.608;8.838;2023-09-07T11:35:53;28.30;36.00
32293;DHT22;43233;48.608;8.838;2023-09-07T11:38:22;28.50;35.60
32293;DHT22;43233;48.608;8.838;2023-09-07T11:40:47;28.70;35.80
32293;DHT22;43233;48.608;8.838;2023-09-07T11:43:17;28.80;35.90
32293;DHT22;43233;48.608;8.838;2023-09-07T11:45:46;29.00;36.10
32293;DHT22;43233;48.608;8.838;2023-09-07T11:48:12;29.10;34.80
32293;DHT22;43233;48.608;8.838;2023-09-07T11:50:39;29.20;33.80
32293;DHT22;43233;48.608;8.838;2023-09-07T11:53:05;29.30;33.80
32293;DHT22;43233;48.608;8.838;2023-09-07T11:55:32;29.40;34.70
32293;DHT22;43233;48.608;8.838;2023-09-07T11:57:58;29.60;34.80
32293;DHT22;43233;48.608;8.838;2023-09-07T12:00:23;29.70;33.40
32293;DHT22;43233;48.608;8.838;2023-09-07T12:02:49;29.80;32.90
32293;DHT22;43233;48.608;8.838;2023-09-07T12:05:15;29.90;32.50
32293;DHT22;43233;48.608;8.838;2023-09-07T12:07:42;30.00;34.20
32293;DHT22;43233;48.608;8.838;2023-09-07T12:10:11;30.10;32.60
32293;DHT22;43233;48.608;8.838;2023-09-07T12:12:39;30.30;33.40
32293;DHT22;43233;48.608;8.838;2023-09-07T12:15:05;30.30;32.20
32293;DHT22;43233;48.608;8.838;2023-09-07T12:17:32;30.50;32.20
32293;DHT22;43233;48.608;8.838;2023-09-07T12:19:57;30.70;32.10
32293;DHT22;43233;48.608;8.838;2023-09-07T12:22:23;30.80;31.40
32293;DHT22;43233;48.608;8.838;2023-09-07T12:24:49;31.00;31.80
32293;DHT22;43233;48.608;8.838;2023-09-07T12:27:15;31.20;31.00
32293;DHT22;43233;48.608;8.838;2023-09-07T12:29:41;31.40;31.20
32293;DHT22;43233;48.608;8.838;2023-09-07T12:32:07;31.50;31.20
32293;DHT22;43233;48.608;8.838;2023-09-07T12:34:35;31.60;30.60
32293;DHT22;43233;48.608;8.838;2023-09-07T12:37:01;31.70;29.60
32293;DHT22;43233;48.608;8.838;2023-09-07T12:39:30;31.80;29.80
32293;DHT22;43233;48.608;8.838;2023-09-07T12:41:55;31.90;29.50
32293;DHT22;43233;48.608;8.838;2023-09-07T12:44:21;32.00;29.50
32293;DHT22;43233;48.608;8.838;2023-09-07T12:46:47;32.10;29.40
32293;DHT22;43233;48.608;8.838;2023-09-07T12:49:13;32.30;29.10
32293;DHT22;43233;48.608;8.838;2023-09-07T12:51:40;32.50;28.20
32293;DHT22;43233;48.608;8.838;2023-09-07T12:54:06;32.60;27.70
32293;DHT22;43233;48.608;8.838;2023-09-07T12:56:33;32.70;27.40
32293;DHT22;43233;48.608;8.838;2023-09-07T12:58:58;32.90;27.10
32293;DHT22;43233;48.608;8.838;2023-09-07T13:01:25;33.10;27.10
32293;DHT22;43233;48.608;8.838;2023-09-07T13:03:51;33.20;27.40
32293;DHT22;43233;48.608;8.838;2023-09-07T13:06:17;33.30;27.30
32293;DHT22;43233;48.608;8.838;2023-09-07T13:08:43;33.60;26.90
32293;DHT22;43233;48.608;8.838;2023-09-07T13:11:10;33.80;25.80
32293;DHT22;43233;48.608;8.838;2023-09-07T13:13:36;34.00;25.40
32293;DHT22;43233;48.608;8.838;2023-09-07T13:16:02;34.30;25.60
32293;DHT22;43233;48.608;8.838;2023-09-07T13:18:28;34.50;25.40
32293;DHT22;43233;48.608;8.838;2023-09-07T13:20:53;34.90;23.90
32293;DHT22;43233;48.608;8.838;2023-09-07T13:23:28;35.10;24.00
32293;DHT22;43233;48.608;8.838;2023-09-07T13:25:57;35.50;23.60
32293;DHT22;43233;48.608;8.838;2023-09-07T13:28:23;36.10;22.60
32293;DHT22;43233;48.608;8.838;2023-09-07T13:30:50;36.60;22.10
32293;DHT22;43233;48.608;8.838;2023-09-07T13:33:16;37.10;21.80
32293;DHT22;43233;48.608;8.838;2023-09-07T13:35:45;37.40;21.40
32293;DHT22;43233;48.608;8.838;2023-09-07T13:38:11;37.80;20.40
32293;DHT22;43233;48.608;8.838;2023-09-07T13:40:36;38.20;20.20
32293;DHT22;43233;48.608;8.838;2023-09-07T13:43:02;38.40;19.80
32293;DHT22;43233;48.608;8.838;2023-09-07T13:45:28;38.80;19.10
32293;DHT22;43233;48.608;8.838;2023-09-07T13:47:56;39.20;19.80
32293;DHT22;43233;48.608;8.838;2023-09-07T13:50:22;39.40;19.20
32293;DHT22;43233;48.608;8.838;2023-09-07T13:52:48;39.70;18.50
32293;DHT22;43233;48.608;8.838;2023-09-07T13:55:14;40.00;18.60
32293;DHT22;43233;48.608;8.838;2023-09-07T13:57:40;40.30;18.20
32293;DHT22;43233;48.608;8.838;2023-09-07T14:00:06;40.60;17.40
32293;DHT22;43233;48.608;8.838;2023-09-07T14:02:32;40.90;17.10
32293;DHT22;43233;48.608;8.838;2023-09-07T14:04:58;41.20;17.00
32293;DHT22;43233;48.608;8.838;2023-09-07T14:07:24;41.40;16.60
32293;DHT22;43233;48.608;8.838;2023-09-07T14:09:54;41.50;16.40
32293;DHT22;43233;48.608;8.838;2023-09-07T14:12:19;41.70;15.90
32293;DHT22;43233;48.608;8.838;2023-09-07T14:14:45;41.90;15.70
32293;DHT22;43233;48.608;8.838;2023-09-07T14:17:11;42.10;15.50
32293;DHT22;43233;48.608;8.838;2023-09-07T14:19:36;42.10;15.50
32293;DHT22;43233;48.608;8.838;2023-09-07T14:22:02;42.30;15.20
32293;DHT22;43233;48.608;8.838;2023-09-07T14:24:28;42.30;15.00
32293;DHT22;43233;48.608;8.838;2023-09-07T14:26:53;42.30;15.10
32293;DHT22;43233;48.608;8.838;2023-09-07T14:29:19;42.50;14.90
32293;DHT22;43233;48.608;8.838;2023-09-07T14:31:46;42.50;14.90
32293;DHT22;43233;48.608;8.838;2023-09-07T14:34:13;42.50;14.80
32293;DHT22;43233;48.608;8.838;2023-09-07T14:36:38;42.50;14.70
32293;DHT22;43233;48.608;8.838;2023-09-07T14:39:06;42.50;14.80
32293;DHT22;43233;48.608;8.838;2023-09-07T14:41:32;42.50;14.80
32293;DHT22;43233;48.608;8.838;2023-09-07T14:43:59;42.50;14.50
32293;DHT22;43233;48.608;8.838;2023-09-07T14:46:25;42.50;14.20
32293;DHT22;43233;48.608;8.838;2023-09-07T14:48:51;42.40;14.60
32293;DHT22;43233;48.608;8.838;2023-09-07T14:51:17;42.40;13.80
32293;DHT22;43233;48.608;8.838;2023-09-07T14:53:43;42.40;13.70
32293;DHT22;43233;48.608;8.838;2023-09-07T14:56:09;42.40;13.70
32293;DHT22;43233;48.608;8.838;2023-09-07T14:58:35;42.30;14.00
32293;DHT22;43233;48.608;8.838;2023-09-07T15:01:01;42.20;14.00
32293;DHT22;43233;48.608;8.838;2023-09-07T15:03:26;42.20;14.00
32293;DHT22;43233;48.608;8.838;2023-09-07T15:05:52;42.10;13.80
32293;DHT22;43233;48.608;8.838;2023-09-07T15:08:18;42.00;13.90
32293;DHT22;43233;48.608;8.838;2023-09-07T15:10:43;42.00;13.90
32293;DHT22;43233;48.608;8.838;2023-09-07T15:13:09;42.00;13.90
32293;DHT22;43233;48.608;8.838;2023-09-07T15:15:35;41.90;13.70
32293;DHT22;43233;48.608;8.838;2023-09-07T15:18:06;42.00;13.80
32293;DHT22;43233;48.608;8.838;2023-09-07T15:20:31;41.80;13.60
32293;DHT22;43233;48.608;8.838;2023-09-07T15:22:57;41.60;13.50
32293;DHT22;43233;48.608;8.838;2023-09-07T15:25:23;41.50;13.70
32293;DHT22;43233;48.608;8.838;2023-09-07T15:27:49;41.40;13.90